Flight Details

Back

 FLIGHT DETAILS

Pilot: GLD1793 Tiago I. Aircraft: C182 RG II Distance: 131NM
From: LPFL To: LPHR Duration: 1.63
Validation: Valid Tipo: Charter Tail Number: PT-GLD
ZFW: 2602 Block Fuel/Init FOB 82flight_details.php/59 Flight Fuel 82
Passengers: 2 Cargo: 50 Alternate: LPLA
Departure Time: 0920 Cruise Speed: 150 Flight Level: FL500
Flight Type: IFR Aircraft Type: C182 Weight Unit: Kg
Date: 02/05/2026 Comments: GOLD ACARS Network: VATSIM
Crash: No Validator Comments: Rating 90

 ROUTE

ROUTE YARM1S YARMA DCT FATAG FATA1E
REMARKS OPR/GOLD VIRTUAL AIRLINES PER/C RMK/FROM LPFL RMK/PIC GLD1793

 FLIGHT PENALTIES

Crash OK Beacon Lights off with engine on OK Speed above 250KIAS below 10.000ft OK
Landing Lights OFF below 10.000ft OK Landing Lights ON above 10.000ft OK Stall OK
Overspeed OK Pause OK Refuel OK
Slew OK Taxi Lights OFF during taxi OK Land Lights OFF during take off OK
Landing Lights OFF during landing OK Landed in not planned airfield OK Taxi speed above 25 kt OK
Incorrect QNH during take off OK Incorrect QNH during landing Fault

 LANDING ANALYSIS

Wind: 79º/22 kt Heading: 84
VS: -14 ft/min IAS: 51 kt
Gforce: 1.0336 G Bank: -1.32
Pitch 6.4 Flaps 100
Nav Lights ON Landing Lights ON
Beacon Lights ON Strobe Lights ON

 FLIGHT MAP

 FIGHT VERTICAL PROFILE

 FLIGHT MAIN EVENTS

DATEEVENTIASALTITUDE
2026-05-02 09:20:09 GOLD ACARS VERSION 3.3.7.000
2026-05-02 09:20:09 BOARDING0-121
2026-05-02 09:35:27 BCN LIGHTS ON0-121
2026-05-02 09:35:34 NAV LIGHTS ON0-121
2026-05-02 09:35:48 STB LIGHTS ON0-121
2026-05-02 09:36:08 STARTING ENGINE 10-121
2026-05-02 09:36:54 TAXI LIGHTS ON0-121
2026-05-02 09:36:56 LND LIGHTS ON0-121
2026-05-02 09:37:16 FLAP 33%1-121
2026-05-02 09:37:41 TAXI TO THE RWY0-119
2026-05-02 09:41:58 CLIMBING81-100
2026-05-02 09:42:14 AP ENGAGED69170
2026-05-02 09:44:12 FLAP 0%631628
2026-05-02 09:44:14 GEAR UP631644
2026-05-02 09:46:46 TAKE OFF WITH TRANSPONDER IN STANDBY663696
2026-05-02 09:48:26 CRUISE674994
2026-05-02 10:34:55 DESCEND1344991
2026-05-02 10:53:45 FLAP 33%9562
2026-05-02 10:53:47 GEAR DOWN9350
2026-05-02 10:53:53 FLAP 66%9214
2026-05-02 10:54:05 AP DISENGAGED76-56
2026-05-02 10:54:09 FLAP 100%74-62
2026-05-02 10:54:24 LANDED AIRPORT [LPHR]52-74
2026-05-02 10:54:25 LANDED - VS: -14 ft/min50-75
2026-05-02 10:54:25 LANDING WITH INCORRECT QNH - SET:1013 LOCAL: 101950-75
2026-05-02 10:54:56 TAXI TO THE GATE28-71
2026-05-02 10:57:16 AT THE GATE4-68
2026-05-02 10:57:27 STOPPING ENGINE 14-68
2026-05-02 10:57:39 NAV LIGHTS OFF4-68
2026-05-02 10:57:41 TAXI LIGHTS OFF3-68
2026-05-02 10:57:42 LND LIGHTS OFF3-68
2026-05-02 10:57:43 BCN LIGHTS OFF3-68
2026-05-02 10:57:43 FLIGHT FINISHED3-68
2026-05-02 09:20:09 GOLD ACARS VERSION 3.3.7.000
2026-05-02 09:20:09 BOARDING0-121
2026-05-02 09:35:27 BCN LIGHTS ON0-121
2026-05-02 09:35:34 NAV LIGHTS ON0-121
2026-05-02 09:35:48 STB LIGHTS ON0-121
2026-05-02 09:36:08 STARTING ENGINE 10-121
2026-05-02 09:36:54 TAXI LIGHTS ON0-121
2026-05-02 09:36:56 LND LIGHTS ON0-121
2026-05-02 09:37:16 FLAP 33%1-121
2026-05-02 09:37:41 TAXI TO THE RWY0-119
2026-05-02 09:41:58 CLIMBING81-100
2026-05-02 09:42:14 AP ENGAGED69170
2026-05-02 09:44:12 FLAP 0%631628
2026-05-02 09:44:14 GEAR UP631644
2026-05-02 09:46:46 TAKE OFF WITH TRANSPONDER IN STANDBY663696
2026-05-02 09:48:26 CRUISE674994
2026-05-02 10:34:55 DESCEND1344991
2026-05-02 10:53:45 FLAP 33%9562
2026-05-02 10:53:47 GEAR DOWN9350
2026-05-02 10:53:53 FLAP 66%9214
2026-05-02 10:54:05 AP DISENGAGED76-56
2026-05-02 10:54:09 FLAP 100%74-62
2026-05-02 10:54:24 LANDED AIRPORT [LPHR]52-74
2026-05-02 10:54:25 LANDED - VS: -14 ft/min50-75
2026-05-02 10:54:25 LANDING WITH INCORRECT QNH - SET:1013 LOCAL: 101950-75
2026-05-02 10:54:56 TAXI TO THE GATE28-71
2026-05-02 10:57:16 AT THE GATE4-68
2026-05-02 10:57:27 STOPPING ENGINE 14-68
2026-05-02 10:57:39 NAV LIGHTS OFF4-68
2026-05-02 10:57:41 TAXI LIGHTS OFF3-68
2026-05-02 10:57:42 LND LIGHTS OFF3-68
2026-05-02 10:57:43 BCN LIGHTS OFF3-68
2026-05-02 10:57:43 FLIGHT FINISHED3-68
2026-05-02 10:58:42 BCN LIGHTS ON3-68
2026-05-02 10:58:45 BCN LIGHTS OFF3-68
2026-05-02 10:58:46 STB LIGHTS OFF3-68
2026-05-02 09:20:09 GOLD ACARS VERSION 3.3.7.000
2026-05-02 09:20:09 BOARDING0-121
2026-05-02 09:35:27 BCN LIGHTS ON0-121
2026-05-02 09:35:34 NAV LIGHTS ON0-121
2026-05-02 09:35:48 STB LIGHTS ON0-121
2026-05-02 09:36:08 STARTING ENGINE 10-121
2026-05-02 09:36:54 TAXI LIGHTS ON0-121
2026-05-02 09:36:56 LND LIGHTS ON0-121
2026-05-02 09:37:16 FLAP 33%1-121
2026-05-02 09:37:41 TAXI TO THE RWY0-119
2026-05-02 09:41:58 CLIMBING81-100
2026-05-02 09:42:14 AP ENGAGED69170
2026-05-02 09:44:12 FLAP 0%631628
2026-05-02 09:44:14 GEAR UP631644
2026-05-02 09:46:46 TAKE OFF WITH TRANSPONDER IN STANDBY663696
2026-05-02 09:48:26 CRUISE674994
2026-05-02 10:34:55 DESCEND1344991
2026-05-02 10:53:45 FLAP 33%9562
2026-05-02 10:53:47 GEAR DOWN9350
2026-05-02 10:53:53 FLAP 66%9214
2026-05-02 10:54:05 AP DISENGAGED76-56
2026-05-02 10:54:09 FLAP 100%74-62
2026-05-02 10:54:24 LANDED AIRPORT [LPHR]52-74
2026-05-02 10:54:25 LANDED - VS: -14 ft/min50-75
2026-05-02 10:54:25 LANDING WITH INCORRECT QNH - SET:1013 LOCAL: 101950-75
2026-05-02 10:54:56 TAXI TO THE GATE28-71
2026-05-02 10:57:16 AT THE GATE4-68
2026-05-02 10:57:27 STOPPING ENGINE 14-68
2026-05-02 10:57:39 NAV LIGHTS OFF4-68
2026-05-02 10:57:41 TAXI LIGHTS OFF3-68
2026-05-02 10:57:42 LND LIGHTS OFF3-68
2026-05-02 10:57:43 BCN LIGHTS OFF3-68
2026-05-02 10:57:43 FLIGHT FINISHED3-68
2026-05-02 10:58:42 BCN LIGHTS ON3-68
2026-05-02 10:58:45 BCN LIGHTS OFF3-68
2026-05-02 10:58:46 STB LIGHTS OFF3-68
2026-05-02 09:20:09 GOLD ACARS VERSION 3.3.7.000
2026-05-02 09:20:09 BOARDING0-121
2026-05-02 09:35:27 BCN LIGHTS ON0-121
2026-05-02 09:35:34 NAV LIGHTS ON0-121
2026-05-02 09:35:48 STB LIGHTS ON0-121
2026-05-02 09:36:08 STARTING ENGINE 10-121
2026-05-02 09:36:54 TAXI LIGHTS ON0-121
2026-05-02 09:36:56 LND LIGHTS ON0-121
2026-05-02 09:37:16 FLAP 33%1-121
2026-05-02 09:37:41 TAXI TO THE RWY0-119
2026-05-02 09:41:58 CLIMBING81-100
2026-05-02 09:42:14 AP ENGAGED69170
2026-05-02 09:44:12 FLAP 0%631628
2026-05-02 09:44:14 GEAR UP631644
2026-05-02 09:46:46 TAKE OFF WITH TRANSPONDER IN STANDBY663696
2026-05-02 09:48:26 CRUISE674994
2026-05-02 10:34:55 DESCEND1344991
2026-05-02 10:53:45 FLAP 33%9562
2026-05-02 10:53:47 GEAR DOWN9350
2026-05-02 10:53:53 FLAP 66%9214
2026-05-02 10:54:05 AP DISENGAGED76-56
2026-05-02 10:54:09 FLAP 100%74-62
2026-05-02 10:54:24 LANDED AIRPORT [LPHR]52-74
2026-05-02 10:54:25 LANDED - VS: -14 ft/min50-75
2026-05-02 10:54:25 LANDING WITH INCORRECT QNH - SET:1013 LOCAL: 101950-75
2026-05-02 10:54:56 TAXI TO THE GATE28-71
2026-05-02 10:57:16 AT THE GATE4-68
2026-05-02 10:57:27 STOPPING ENGINE 14-68
2026-05-02 10:57:39 NAV LIGHTS OFF4-68
2026-05-02 10:57:41 TAXI LIGHTS OFF3-68
2026-05-02 10:57:42 LND LIGHTS OFF3-68
2026-05-02 10:57:43 BCN LIGHTS OFF3-68
2026-05-02 10:57:43 FLIGHT FINISHED3-68
2026-05-02 10:58:42 BCN LIGHTS ON3-68
2026-05-02 10:58:45 BCN LIGHTS OFF3-68
2026-05-02 10:58:46 STB LIGHTS OFF3-68
2026-05-02 09:20:09 GOLD ACARS VERSION 3.3.7.000
2026-05-02 09:20:09 BOARDING0-121
2026-05-02 09:35:27 BCN LIGHTS ON0-121
2026-05-02 09:35:34 NAV LIGHTS ON0-121
2026-05-02 09:35:48 STB LIGHTS ON0-121
2026-05-02 09:36:08 STARTING ENGINE 10-121
2026-05-02 09:36:54 TAXI LIGHTS ON0-121
2026-05-02 09:36:56 LND LIGHTS ON0-121
2026-05-02 09:37:16 FLAP 33%1-121
2026-05-02 09:37:41 TAXI TO THE RWY0-119
2026-05-02 09:41:58 CLIMBING81-100
2026-05-02 09:42:14 AP ENGAGED69170
2026-05-02 09:44:12 FLAP 0%631628
2026-05-02 09:44:14 GEAR UP631644
2026-05-02 09:46:46 TAKE OFF WITH TRANSPONDER IN STANDBY663696
2026-05-02 09:48:26 CRUISE674994
2026-05-02 10:34:55 DESCEND1344991
2026-05-02 10:53:45 FLAP 33%9562
2026-05-02 10:53:47 GEAR DOWN9350
2026-05-02 10:53:53 FLAP 66%9214
2026-05-02 10:54:05 AP DISENGAGED76-56
2026-05-02 10:54:09 FLAP 100%74-62
2026-05-02 10:54:24 LANDED AIRPORT [LPHR]52-74
2026-05-02 10:54:25 LANDED - VS: -14 ft/min50-75
2026-05-02 10:54:25 LANDING WITH INCORRECT QNH - SET:1013 LOCAL: 101950-75
2026-05-02 10:54:56 TAXI TO THE GATE28-71
2026-05-02 10:57:16 AT THE GATE4-68
2026-05-02 10:57:27 STOPPING ENGINE 14-68
2026-05-02 10:57:39 NAV LIGHTS OFF4-68
2026-05-02 10:57:41 TAXI LIGHTS OFF3-68
2026-05-02 10:57:42 LND LIGHTS OFF3-68
2026-05-02 10:57:43 BCN LIGHTS OFF3-68
2026-05-02 10:57:43 FLIGHT FINISHED3-68
2026-05-02 10:58:42 BCN LIGHTS ON3-68
2026-05-02 10:58:45 BCN LIGHTS OFF3-68
2026-05-02 10:58:46 STB LIGHTS OFF3-68
2026-05-02 09:20:09 GOLD ACARS VERSION 3.3.7.000
2026-05-02 09:20:09 BOARDING0-121
2026-05-02 09:35:27 BCN LIGHTS ON0-121
2026-05-02 09:35:34 NAV LIGHTS ON0-121
2026-05-02 09:35:48 STB LIGHTS ON0-121
2026-05-02 09:36:08 STARTING ENGINE 10-121
2026-05-02 09:36:54 TAXI LIGHTS ON0-121
2026-05-02 09:36:56 LND LIGHTS ON0-121
2026-05-02 09:37:16 FLAP 33%1-121
2026-05-02 09:37:41 TAXI TO THE RWY0-119
2026-05-02 09:41:58 CLIMBING81-100
2026-05-02 09:42:14 AP ENGAGED69170
2026-05-02 09:44:12 FLAP 0%631628
2026-05-02 09:44:14 GEAR UP631644
2026-05-02 09:46:46 TAKE OFF WITH TRANSPONDER IN STANDBY663696
2026-05-02 09:48:26 CRUISE674994
2026-05-02 10:34:55 DESCEND1344991
2026-05-02 10:53:45 FLAP 33%9562
2026-05-02 10:53:47 GEAR DOWN9350
2026-05-02 10:53:53 FLAP 66%9214
2026-05-02 10:54:05 AP DISENGAGED76-56
2026-05-02 10:54:09 FLAP 100%74-62
2026-05-02 10:54:24 LANDED AIRPORT [LPHR]52-74
2026-05-02 10:54:25 LANDED - VS: -14 ft/min50-75
2026-05-02 10:54:25 LANDING WITH INCORRECT QNH - SET:1013 LOCAL: 101950-75
2026-05-02 10:54:56 TAXI TO THE GATE28-71
2026-05-02 10:57:16 AT THE GATE4-68
2026-05-02 10:57:27 STOPPING ENGINE 14-68
2026-05-02 10:57:39 NAV LIGHTS OFF4-68
2026-05-02 10:57:41 TAXI LIGHTS OFF3-68
2026-05-02 10:57:42 LND LIGHTS OFF3-68
2026-05-02 10:57:43 BCN LIGHTS OFF3-68
2026-05-02 10:57:43 FLIGHT FINISHED3-68
2026-05-02 10:58:42 BCN LIGHTS ON3-68
2026-05-02 10:58:45 BCN LIGHTS OFF3-68
2026-05-02 10:58:46 STB LIGHTS OFF3-68
2026-05-02 09:20:09 GOLD ACARS VERSION 3.3.7.000
2026-05-02 09:20:09 BOARDING0-121
2026-05-02 09:35:27 BCN LIGHTS ON0-121
2026-05-02 09:35:34 NAV LIGHTS ON0-121
2026-05-02 09:35:48 STB LIGHTS ON0-121
2026-05-02 09:36:08 STARTING ENGINE 10-121
2026-05-02 09:36:54 TAXI LIGHTS ON0-121
2026-05-02 09:36:56 LND LIGHTS ON0-121
2026-05-02 09:37:16 FLAP 33%1-121
2026-05-02 09:37:41 TAXI TO THE RWY0-119
2026-05-02 09:41:58 CLIMBING81-100
2026-05-02 09:42:14 AP ENGAGED69170
2026-05-02 09:44:12 FLAP 0%631628
2026-05-02 09:44:14 GEAR UP631644
2026-05-02 09:46:46 TAKE OFF WITH TRANSPONDER IN STANDBY663696
2026-05-02 09:48:26 CRUISE674994
2026-05-02 10:34:55 DESCEND1344991
2026-05-02 10:53:45 FLAP 33%9562
2026-05-02 10:53:47 GEAR DOWN9350
2026-05-02 10:53:53 FLAP 66%9214
2026-05-02 10:54:05 AP DISENGAGED76-56
2026-05-02 10:54:09 FLAP 100%74-62
2026-05-02 10:54:24 LANDED AIRPORT [LPHR]52-74
2026-05-02 10:54:25 LANDED - VS: -14 ft/min50-75
2026-05-02 10:54:25 LANDING WITH INCORRECT QNH - SET:1013 LOCAL: 101950-75
2026-05-02 10:54:56 TAXI TO THE GATE28-71
2026-05-02 10:57:16 AT THE GATE4-68
2026-05-02 10:57:27 STOPPING ENGINE 14-68
2026-05-02 10:57:39 NAV LIGHTS OFF4-68
2026-05-02 10:57:41 TAXI LIGHTS OFF3-68
2026-05-02 10:57:42 LND LIGHTS OFF3-68
2026-05-02 10:57:43 BCN LIGHTS OFF3-68
2026-05-02 10:57:43 FLIGHT FINISHED3-68
2026-05-02 10:58:42 BCN LIGHTS ON3-68
2026-05-02 10:58:45 BCN LIGHTS OFF3-68
2026-05-02 10:58:46 STB LIGHTS OFF3-68

 ACARS DATA

DATEIASGSALTITUDEFUEL USED OATFlight Phase
2026-05-02 09:22:1010-121-1515BOARDING
2026-05-02 09:23:1110-121-1515BOARDING
2026-05-02 09:24:1210-121-1515BOARDING
2026-05-02 09:25:1210-121-1515BOARDING
2026-05-02 09:26:1310-121-1515BOARDING
2026-05-02 09:27:1410-121-1515BOARDING
2026-05-02 09:28:1510-121-1515BOARDING
2026-05-02 09:29:1510-121-1515BOARDING
2026-05-02 09:30:1610-121-1515BOARDING
2026-05-02 09:31:1710-121-1515BOARDING
2026-05-02 09:32:1810-121-1515BOARDING
2026-05-02 09:33:1910-121-1515BOARDING
2026-05-02 09:34:1910-121-1515BOARDING
2026-05-02 09:35:2010-121-1515BOARDING
2026-05-02 09:36:2110-121-1515BOARDING
2026-05-02 09:37:2210-121-1515BOARDING
2026-05-02 09:38:2263-119-1516BOARDING
2026-05-02 09:39:2330-119-1516TAXI TO THE RWY
2026-05-02 09:40:242018-116-1516TAXI TO THE RWY
2026-05-02 09:41:2569-115-1516TAXI TO THE RWY
2026-05-02 09:42:267282306-1416TAXI TO THE RWY
2026-05-02 09:43:2768501089-1312CLIMBING
2026-05-02 09:44:2767481793-1210CLIMBING
2026-05-02 09:45:2868502669-118CLIMBING
2026-05-02 09:46:2967483472-107CLIMBING
2026-05-02 09:47:3065484242-106CLIMBING
2026-05-02 09:48:3076615002-94CLIMBING
2026-05-02 09:49:311391275018-85CRUISE
2026-05-02 09:50:321431325007-75CRUISE
2026-05-02 09:51:331351244990-75CRUISE
2026-05-02 09:52:341291174991-65CRUISE
2026-05-02 09:53:341331235000-65CRUISE
2026-05-02 09:54:351431345010-55CRUISE
2026-05-02 09:55:361351244997-45CRUISE
2026-05-02 09:56:371311194996-45CRUISE
2026-05-02 09:57:381331194998-35CRUISE
2026-05-02 09:58:381311174997-35CRUISE
2026-05-02 09:59:391321174997-25CRUISE
2026-05-02 10:00:401311174993-25CRUISE
2026-05-02 10:01:411341215001-15CRUISE
2026-05-02 10:02:421331205001-15CRUISE
2026-05-02 10:03:42133121500105CRUISE
2026-05-02 10:04:43133120499905CRUISE
2026-05-02 10:05:44132118500105CRUISE
2026-05-02 10:06:45130124498715CRUISE
2026-05-02 10:07:46132118499515CRUISE
2026-05-02 10:08:46131118499825CRUISE
2026-05-02 10:09:47130120499525CRUISE
2026-05-02 10:10:48132119499835CRUISE
2026-05-02 10:11:49131119499635CRUISE
2026-05-02 10:12:50130119500645CRUISE
2026-05-02 10:13:50132120500545CRUISE
2026-05-02 10:14:51132120500655CRUISE
2026-05-02 10:15:52131120500255CRUISE
2026-05-02 10:16:53133121500465CRUISE
2026-05-02 10:17:53129118500375CRUISE
2026-05-02 10:18:54130119500175CRUISE
2026-05-02 10:19:55132118500385CRUISE
2026-05-02 10:20:56130118500485CRUISE
2026-05-02 10:21:57129118500395CRUISE
2026-05-02 10:22:57129118500195CRUISE
2026-05-02 10:23:581301195001105CRUISE
2026-05-02 10:24:591311175004105CRUISE
2026-05-02 10:26:001291205002115CRUISE
2026-05-02 10:27:001321195006115CRUISE
2026-05-02 10:28:011291205005125CRUISE
2026-05-02 10:29:021301205002125CRUISE
2026-05-02 10:30:031301185001135CRUISE
2026-05-02 10:31:041331195000145CRUISE
2026-05-02 10:32:041321175002145CRUISE
2026-05-02 10:33:051291205001155CRUISE
2026-05-02 10:34:061331195005155CRUISE
2026-05-02 10:35:071361274901165CRUISE
2026-05-02 10:36:081481344396166DESCEND
2026-05-02 10:37:091481343880177DESCEND
2026-05-02 10:38:091671492970178DESCEND
2026-05-02 10:39:10114972491189DESCEND
2026-05-02 10:40:1112411419231810DESCEND
2026-05-02 10:41:121139914951811DESCEND
2026-05-02 10:42:121028814921811DESCEND
2026-05-02 10:43:13988714951911DESCEND
2026-05-02 10:44:141059715111911DESCEND
2026-05-02 10:45:151059615061911DESCEND
2026-05-02 10:46:161049515031911DESCEND
2026-05-02 10:47:161069015012011DESCEND
2026-05-02 10:48:171058715012011DESCEND
2026-05-02 10:49:181088815022011DESCEND
2026-05-02 10:50:19997914912111DESCEND
2026-05-02 10:51:191129213992112DESCEND
2026-05-02 10:52:201241058452114DESCEND
2026-05-02 10:53:21119982682117DESCEND
2026-05-02 10:54:225533-722117DESCEND
2026-05-02 10:55:23243-652117DESCEND
2026-05-02 10:56:23170-682217TAXI TO THE GATE
2026-05-02 10:57:2450-682217TAXI TO THE GATE
2026-05-02 12:15:2600-95018AT THE GATE